Time;durP1;ratioP1;P1;durP2;ratioP2;P2;SDS_P1;SDS_P2;PMS_P1;PMS_P2;Temp;Humidity;BMP_temperature;BMP_pressure;BME280_temperature;BME280_humidity;BME280_pressure;Samples;Min_cycle;Max_cycle;Signal;HPM_P1;HPM_P2
2023/07/11 00:01:46;;;;;;;5.95;2.20;;;20.30;99.90;;;;;;5003480;28;20031;-70
2023/07/11 00:04:11;;;;;;;10.43;2.50;;;20.30;99.90;;;;;;5011238;28;20107;-70
2023/07/11 00:06:37;;;;;;;13.13;3.08;;;20.30;99.90;;;;;;4999112;28;20042;-70
2023/07/11 00:09:02;;;;;;;9.25;2.63;;;20.30;99.90;;;;;;5008540;28;20038;-71
2023/07/11 00:11:28;;;;;;;10.15;3.10;;;20.30;99.90;;;;;;5004943;28;20041;-70
2023/07/11 00:13:55;;;;;;;9.63;2.75;;;20.30;99.90;;;;;;5001785;28;20106;-71
2023/07/11 00:16:21;;;;;;;11.85;3.30;;;20.30;99.90;;;;;;5011130;28;20114;-70
2023/07/11 00:18:47;;;;;;;7.15;2.70;;;20.20;99.90;;;;;;4997790;28;20114;-70
2023/07/11 00:21:12;;;;;;;9.93;2.85;;;20.20;99.90;;;;;;5007466;28;20440;-69
2023/07/11 00:23:40;;;;;;;6.57;2.30;;;20.10;99.90;;;;;;5005757;28;20030;-69
2023/07/11 00:26:05;;;;;;;7.10;2.55;;;20.10;99.90;;;;;;4999968;28;20022;-69
2023/07/11 00:28:31;;;;;;;7.25;2.38;;;20.00;99.90;;;;;;5011121;28;20126;-71
2023/07/11 00:30:58;;;;;;;12.40;3.80;;;20.00;99.90;;;;;;4998960;28;20474;-70
2023/07/11 00:33:24;;;;;;;6.72;2.58;;;19.90;99.90;;;;;;5003473;28;20084;-71
2023/07/11 00:35:52;;;;;;;7.68;2.20;;;19.90;99.90;;;;;;5004214;28;20042;-71
2023/07/11 00:38:18;;;;;;;10.30;2.80;;;19.90;99.90;;;;;;4995358;28;20037;-70
2023/07/11 00:40:47;;;;;;;8.82;2.58;;;19.80;99.90;;;;;;4995333;28;20030;-70
2023/07/11 00:43:15;;;;;;;12.07;3.20;;;19.80;99.90;;;;;;5003796;28;20027;-70
2023/07/11 00:45:55;;;;;;;8.43;2.60;;;19.80;99.90;;;;;;5002805;28;20060;-70
2023/07/11 00:48:22;;;;;;;10.55;2.72;;;19.70;99.90;;;;;;4994984;28;20040;-68
2023/07/11 00:50:49;;;;;;;10.95;3.45;;;19.70;99.90;;;;;;5006985;28;20085;-70
2023/07/11 00:53:16;;;;;;;11.80;2.90;;;19.60;99.90;;;;;;4999665;28;20040;-70
2023/07/11 00:55:43;;;;;;;11.77;3.17;;;19.60;99.90;;;;;;4999244;28;20030;-70
2023/07/11 00:58:09;;;;;;;13.13;3.17;;;19.50;99.90;;;;;;5006069;28;20435;-69
2023/07/11 01:00:34;;;;;;;5.55;2.65;;;19.50;99.90;;;;;;4994899;28;20040;-70
2023/07/11 01:03:00;;;;;;;8.90;2.75;;;19.40;99.90;;;;;;5005383;28;20117;-70
2023/07/11 01:05:26;;;;;;;9.05;2.60;;;19.40;99.90;;;;;;5000253;28;20021;-70
2023/07/11 01:07:51;;;;;;;8.07;2.63;;;19.40;99.90;;;;;;4998133;28;20030;-70
2023/07/11 01:10:17;;;;;;;6.82;2.45;;;19.40;99.90;;;;;;5007171;28;20069;-71
2023/07/11 01:12:45;;;;;;;8.48;2.55;;;19.30;99.90;;;;;;4994149;28;20041;-70
2023/07/11 01:15:11;;;;;;;7.10;2.70;;;19.40;99.90;;;;;;5003648;28;20030;-70
2023/07/11 01:17:37;;;;;;;6.80;2.60;;;19.30;99.90;;;;;;5001508;28;20034;-70
2023/07/11 01:20:07;;;;;;;10.55;2.75;;;19.40;99.90;;;;;;4995794;28;20041;-70
2023/07/11 01:22:36;;;;;;;6.65;2.70;;;19.30;99.90;;;;;;5006985;28;20034;-70
2023/07/11 01:25:11;;;;;;;10.68;2.70;;;19.30;99.90;;;;;;4996581;28;20077;-69
2023/07/11 01:27:39;;;;;;;9.57;2.67;;;19.30;99.90;;;;;;4999952;28;20080;-70
2023/07/11 01:30:07;;;;;;;6.88;2.60;;;19.30;99.90;;;;;;5005102;28;20432;-69
2023/07/11 01:32:33;;;;;;;7.35;2.30;;;19.20;99.90;;;;;;4994205;28;20557;-71
2023/07/11 01:34:59;;;;;;;9.70;2.83;;;19.20;99.90;;;;;;5004798;28;20030;-69
2023/07/11 01:37:24;;;;;;;6.20;2.20;;;19.20;99.90;;;;;;4999279;28;20032;-69
2023/07/11 01:39:50;;;;;;;8.35;2.20;;;19.20;99.90;;;;;;4997656;28;20034;-70
2023/07/11 01:42:16;;;;;;;6.25;2.38;;;19.20;99.90;;;;;;5006250;28;20034;-71
2023/07/11 01:44:42;;;;;;;8.85;2.60;;;19.20;99.90;;;;;;4993786;28;20026;-69
2023/07/11 01:47:08;;;;;;;9.07;2.75;;;19.20;99.90;;;;;;5003167;28;20037;-70
2023/07/11 01:49:34;;;;;;;9.85;2.72;;;19.20;99.90;;;;;;5000304;28;20092;-70
2023/07/11 01:52:12;;;;;;;9.05;2.80;;;19.10;99.90;;;;;;4996023;28;20038;-70
2023/07/11 01:54:38;;;;;;;9.05;3.00;;;19.10;99.90;;;;;;5006424;28;20061;-70
2023/07/11 01:57:04;;;;;;;7.45;2.67;;;19.00;99.90;;;;;;4996379;28;20058;-72
2023/07/11 01:59:29;;;;;;;8.75;2.70;;;19.00;99.90;;;;;;5000345;28;20205;-70
2023/07/11 02:01:55;;;;;;;9.52;3.03;;;19.00;99.90;;;;;;5002949;28;20033;-71
2023/07/11 02:04:23;;;;;;;11.10;3.47;;;19.00;99.90;;;;;;4993094;28;20034;-70
2023/07/11 02:06:49;;;;;;;15.45;4.47;;;19.00;99.90;;;;;;5005551;28;20133;-69
2023/07/11 02:09:16;;;;;;;14.40;4.38;;;19.00;99.90;;;;;;4997879;28;20022;-71
2023/07/11 02:11:41;;;;;;;15.30;3.97;;;19.00;99.90;;;;;;4998501;28;20130;-69
2023/07/11 02:14:07;;;;;;;12.52;4.05;;;19.00;99.90;;;;;;5004777;28;20482;-69
2023/07/11 02:16:32;;;;;;;16.35;4.25;;;19.00;99.90;;;;;;4993565;28;20041;-69
2023/07/11 02:18:58;;;;;;;14.32;3.78;;;19.00;99.90;;;;;;5004155;28;20136;-70
2023/07/11 02:21:23;;;;;;;11.88;3.58;;;19.00;99.90;;;;;;4997396;28;20026;-70
2023/07/11 02:23:49;;;;;;;13.50;3.28;;;18.90;99.90;;;;;;4997194;28;20038;-70
2023/07/11 02:26:15;;;;;;;11.35;3.20;;;19.00;99.90;;;;;;5005814;28;20038;-71
2023/07/11 02:28:41;;;;;;;9.15;2.88;;;19.00;99.90;;;;;;4993196;28;20034;-70
2023/07/11 02:31:07;;;;;;;10.00;2.80;;;18.90;99.90;;;;;;5003050;28;20068;-70
2023/07/11 02:33:32;;;;;;;8.15;2.90;;;18.90;99.90;;;;;;5006051;28;20034;-71
2023/07/11 02:35:58;;;;;;;9.65;2.70;;;18.90;99.90;;;;;;5002578;28;20030;-70
2023/07/11 02:38:23;;;;;;;5.53;2.67;;;18.90;99.90;;;;;;5012242;28;20030;-70
2023/07/11 02:40:49;;;;;;;9.55;3.05;;;18.90;99.90;;;;;;5000286;28;20022;-70
2023/07/11 02:43:15;;;;;;;7.47;2.35;;;18.90;99.90;;;;;;5008444;28;20117;-70
2023/07/11 02:45:41;;;;;;;10.63;2.78;;;18.90;99.90;;;;;;5007794;28;20038;-69
2023/07/11 02:48:06;;;;;;;8.45;2.70;;;18.80;99.90;;;;;;5000871;28;20036;-71
2023/07/11 02:50:32;;;;;;;6.25;2.58;;;18.80;99.90;;;;;;5012319;28;20072;-69
2023/07/11 02:52:58;;;;;;;12.80;2.92;;;18.80;99.90;;;;;;5001426;28;20643;-70
2023/07/11 02:55:23;;;;;;;7.32;2.42;;;18.80;99.90;;;;;;4996264;28;20030;-69
2023/07/11 02:57:49;;;;;;;9.00;2.85;;;18.80;99.90;;;;;;5008573;28;20026;-70
2023/07/11 03:00:15;;;;;;;11.13;2.83;;;18.80;99.90;;;;;;5000201;28;20034;-70
2023/07/11 03:02:40;;;;;;;8.82;2.88;;;18.80;99.90;;;;;;5012343;28;20041;-70
2023/07/11 03:05:06;;;;;;;11.18;2.95;;;18.80;99.90;;;;;;5002295;28;20095;-70
2023/07/11 03:07:31;;;;;;;11.75;2.95;;;18.80;99.90;;;;;;5006219;28;20125;-71
2023/07/11 03:09:57;;;;;;;10.40;2.80;;;18.90;99.90;;;;;;5009453;28;20133;-70
2023/07/11 03:12:23;;;;;;;7.93;2.90;;;18.90;99.90;;;;;;4999037;28;20037;-71
2023/07/11 03:14:49;;;;;;;13.90;3.75;;;18.80;99.90;;;;;;5011941;28;20030;-71
2023/07/11 03:17:15;;;;;;;11.50;3.00;;;18.90;99.90;;;;;;4995829;28;20026;-70
2023/07/11 03:19:40;;;;;;;11.88;3.05;;;18.90;99.90;;;;;;5007315;28;20403;-70
2023/07/11 03:22:06;;;;;;;11.52;3.63;;;18.90;99.90;;;;;;5001145;28;20026;-69
2023/07/11 03:24:32;;;;;;;15.52;4.47;;;18.90;99.90;;;;;;5012259;28;20092;-70
2023/07/11 03:26:57;;;;;;;13.90;4.30;;;18.80;99.90;;;;;;5001394;28;20041;-68
2023/07/11 03:29:23;;;;;;;10.60;3.53;;;18.80;99.90;;;;;;5007265;28;20026;-71
2023/07/11 03:31:49;;;;;;;8.63;2.75;;;18.80;99.90;;;;;;5008321;28;20088;-70
2023/07/11 03:34:14;;;;;;;5.47;2.40;;;18.80;99.90;;;;;;5000176;28;20152;-70
2023/07/11 03:36:41;;;;;;;8.57;2.47;;;18.70;99.90;;;;;;5012541;28;20490;-70
2023/07/11 03:39:07;;;;;;;5.47;2.13;;;18.70;99.90;;;;;;5002119;28;20504;-70
2023/07/11 03:41:32;;;;;;;7.90;1.98;;;18.70;99.90;;;;;;5005103;28;20395;-70
2023/07/11 03:43:58;;;;;;;4.82;1.92;;;18.70;99.90;;;;;;5006198;28;20026;-70
2023/07/11 03:46:24;;;;;;;6.68;1.90;;;18.60;99.90;;;;;;4995444;28;20042;-70
2023/07/11 03:48:49;;;;;;;6.80;1.92;;;18.60;99.90;;;;;;5008002;28;20029;-70
2023/07/11 03:51:15;;;;;;;7.68;2.05;;;18.60;99.90;;;;;;4999876;28;20716;-70
2023/07/11 03:53:40;;;;;;;6.28;2.00;;;18.60;99.90;;;;;;5001030;28;20078;-70
2023/07/11 03:56:09;;;;;;;4.80;1.70;;;18.60;99.90;;;;;;5006979;28;20651;-70
2023/07/11 03:58:34;;;;;;;8.65;2.25;;;18.60;99.90;;;;;;4995585;28;20097;-70
2023/07/11 04:01:00;;;;;;;6.35;2.00;;;18.60;99.90;;;;;;5005238;28;20541;-70
2023/07/11 04:03:26;;;;;;;7.25;1.90;;;18.60;99.90;;;;;;5003052;28;20034;-71
2023/07/11 04:05:53;;;;;;;9.90;2.30;;;18.60;99.90;;;;;;5005496;28;20029;-71
2023/07/11 04:08:19;;;;;;;8.52;2.25;;;18.60;99.90;;;;;;4995898;28;20035;-70
2023/07/11 04:10:44;;;;;;;6.05;2.17;;;18.60;99.90;;;;;;5008687;28;20046;-69
2023/07/11 04:13:10;;;;;;;5.53;2.08;;;18.70;99.90;;;;;;4999249;28;20237;-70
2023/07/11 04:15:35;;;;;;;6.90;2.00;;;18.70;99.90;;;;;;5001466;28;20046;-71
2023/07/11 04:18:01;;;;;;;4.72;2.22;;;18.80;99.90;;;;;;5005822;28;20037;-69
2023/07/11 04:20:26;;;;;;;5.45;2.00;;;18.80;99.90;;;;;;4995772;28;20026;-70
2023/07/11 04:22:52;;;;;;;5.38;2.00;;;18.80;99.90;;;;;;5007299;28;20034;-69
2023/07/11 04:25:18;;;;;;;6.07;1.77;;;18.80;99.90;;;;;;5000214;28;20092;-70
2023/07/11 04:27:43;;;;;;;7.65;1.70;;;18.90;99.90;;;;;;5000419;28;20041;-70
2023/07/11 04:30:09;;;;;;;7.97;2.00;;;18.90;99.90;;;;;;5007019;28;20390;-69
2023/07/11 04:32:35;;;;;;;11.30;2.20;;;18.90;99.90;;;;;;4995153;28;20034;-70
2023/07/11 04:35:01;;;;;;;6.80;1.75;;;18.90;99.90;;;;;;5006051;28;20037;-71
2023/07/11 04:37:27;;;;;;;7.82;1.70;;;19.00;99.90;;;;;;5001359;28;20026;-71
2023/07/11 04:39:52;;;;;;;6.40;1.90;;;19.10;99.90;;;;;;4999026;28;20026;-71
2023/07/11 04:42:18;;;;;;;13.32;2.13;;;19.10;99.90;;;;;;5008062;28;20087;-70
2023/07/11 04:44:43;;;;;;;4.22;1.95;;;19.20;99.90;;;;;;4994591;28;20204;-70
2023/07/11 04:47:10;;;;;;;10.05;2.30;;;19.20;99.90;;;;;;5004615;28;20042;-70
2023/07/11 04:49:35;;;;;;;7.35;2.50;;;19.30;99.90;;;;;;5001672;28;20486;-70
2023/07/11 04:52:01;;;;;;;6.57;1.80;;;19.40;99.90;;;;;;4997329;28;20045;-70
2023/07/11 04:54:27;;;;;;;5.93;2.00;;;19.40;99.90;;;;;;5007345;28;20470;-69
2023/07/11 04:56:58;;;;;;;5.03;2.20;;;19.50;99.90;;;;;;4995636;28;20061;-68
2023/07/11 04:59:23;;;;;;;7.05;2.10;;;19.60;99.90;;;;;;5002367;28;20052;-71
2023/07/11 05:01:49;;;;;;;8.23;2.42;;;19.70;99.90;;;;;;4999593;28;20486;-70
2023/07/11 05:04:14;;;;;;;9.80;2.50;;;19.80;99.90;;;;;;5007228;28;20049;-69
2023/07/11 05:06:40;;;;;;;5.82;2.28;;;19.80;99.90;;;;;;4994505;28;20663;-70
2023/07/11 05:09:06;;;;;;;6.43;2.28;;;19.90;99.90;;;;;;5004124;28;20116;-71
2023/07/11 05:11:32;;;;;;;10.55;2.70;;;20.00;99.90;;;;;;5001057;28;20053;-69
2023/07/11 05:13:58;;;;;;;6.50;2.35;;;20.10;99.90;;;;;;4997306;28;20026;-70
2023/07/11 05:16:28;;;;;;;7.78;2.65;;;20.20;99.90;;;;;;5007207;28;20037;-70
2023/07/11 05:18:55;;;;;;;8.43;3.13;;;20.40;99.90;;;;;;4998444;28;20029;-69
2023/07/11 05:21:21;;;;;;;6.75;2.47;;;20.60;99.90;;;;;;5005691;28;20062;-69
2023/07/11 05:23:48;;;;;;;6.55;2.40;;;20.70;99.90;;;;;;5006162;28;20030;-69
2023/07/11 05:26:14;;;;;;;7.35;2.70;;;20.80;99.90;;;;;;4998445;28;20085;-70
2023/07/11 05:28:40;;;;;;;8.30;2.50;;;20.90;99.90;;;;;;4989518;28;20050;-69
2023/07/11 05:31:07;;;;;;;6.07;2.40;;;21.10;99.90;;;;;;4982751;28;20078;-69
2023/07/11 05:33:34;;;;;;;8.60;2.63;;;21.20;99.90;;;;;;4982949;28;20098;-70
2023/07/11 05:38:50;;;;;;;9.10;2.50;;;21.60;99.90;;;;;;4984868;28;20037;-70
2023/07/11 05:41:16;;;;;;;10.43;2.72;;;22.10;99.90;;;;;;4984561;28;20026;-69
2023/07/11 05:43:42;;;;;;;9.23;2.20;;;22.70;99.90;;;;;;4983482;28;20388;-71
2023/07/11 05:46:07;;;;;;;7.95;2.47;;;23.40;99.90;;;;;;4983666;28;20022;-71
2023/07/11 05:48:33;;;;;;;10.18;2.13;;;24.20;99.90;;;;;;4985201;28;20050;-70
2023/07/11 05:51:06;;;;;;;7.63;2.20;;;24.90;98.60;;;;;;4983453;28;20035;-70
2023/07/11 05:53:31;;;;;;;8.30;2.38;;;25.10;97.90;;;;;;4981958;28;20031;-71
2023/07/11 05:55:57;;;;;;;8.23;2.30;;;25.40;97.60;;;;;;4984693;28;20029;-71
2023/07/11 05:58:28;;;;;;;7.82;2.00;;;25.80;97.10;;;;;;4983648;28;20035;-71
2023/07/11 06:00:55;;;;;;;6.05;2.00;;;26.20;96.30;;;;;;4982354;28;20023;-71
2023/07/11 06:03:22;;;;;;;7.40;2.00;;;26.80;95.40;;;;;;4982759;28;20030;-71
2023/07/11 06:05:48;;;;;;;7.85;2.20;;;27.40;94.70;;;;;;4984456;28;20046;-71
2023/07/11 06:08:14;;;;;;;8.02;1.92;;;27.80;93.60;;;;;;4981853;28;20058;-70
2023/07/11 06:10:40;;;;;;;10.30;2.40;;;28.10;93.10;;;;;;4984283;28;20121;-71
2023/07/11 06:13:06;;;;;;;8.25;2.20;;;28.80;92.30;;;;;;4983830;28;20082;-71
2023/07/11 06:15:31;;;;;;;6.85;2.38;;;29.70;91.20;;;;;;4982343;28;20035;-69
2023/07/11 06:17:57;;;;;;;8.93;1.92;;;30.30;90.60;;;;;;4985381;28;20059;-69
2023/07/11 06:20:23;;;;;;;6.32;2.40;;;30.70;89.00;;;;;;4983605;28;20057;-70
2023/07/11 06:22:49;;;;;;;8.05;2.47;;;30.70;88.80;;;;;;4984223;28;20031;-69
2023/07/11 06:25:15;;;;;;;7.47;1.95;;;30.80;88.20;;;;;;4982220;28;20054;-70
2023/07/11 06:27:40;;;;;;;9.77;2.67;;;31.00;87.40;;;;;;4983892;28;20022;-69
2023/07/11 06:30:06;;;;;;;8.77;2.40;;;31.00;87.30;;;;;;4983326;28;20034;-70
2023/07/11 06:32:32;;;;;;;7.15;2.40;;;31.40;86.80;;;;;;4982150;28;20034;-69
2023/07/11 06:34:58;;;;;;;7.60;2.50;;;31.40;86.40;;;;;;4984261;28;20432;-70
2023/07/11 06:37:23;;;;;;;8.57;3.15;;;31.10;86.70;;;;;;4982941;28;20033;-70
2023/07/11 06:39:49;;;;;;;9.80;3.08;;;30.70;87.10;;;;;;4982376;28;20072;-70
2023/07/11 06:42:15;;;;;;;9.27;2.83;;;30.20;88.90;;;;;;4984367;28;20023;-70
2023/07/11 06:44:41;;;;;;;8.77;2.83;;;29.70;89.20;;;;;;4982875;28;20030;-70
2023/07/11 06:47:07;;;;;;;9.52;3.83;;;29.10;90.00;;;;;;4983199;28;20026;-70
2023/07/11 06:49:33;;;;;;;9.30;3.17;;;28.40;90.80;;;;;;4984653;28;20027;-69
2023/07/11 06:51:59;;;;;;;11.65;3.25;;;28.00;91.20;;;;;;4982201;28;20470;-71
2023/07/11 06:54:25;;;;;;;9.02;3.20;;;27.40;92.10;;;;;;4983302;28;20022;-70
2023/07/11 06:56:52;;;;;;;10.00;3.35;;;27.40;92.20;;;;;;4984090;28;20029;-71
2023/07/11 06:59:21;;;;;;;7.97;3.10;;;27.80;91.80;;;;;;4990753;28;20030;-70
2023/07/11 07:01:47;;;;;;;6.85;3.20;;;28.40;91.10;;;;;;4990224;28;20382;-69
2023/07/11 07:04:16;;;;;;;9.38;3.08;;;29.00;90.70;;;;;;4993117;28;20525;-69
2023/07/11 07:06:43;;;;;;;6.90;2.95;;;29.40;90.20;;;;;;4993179;28;20086;-70
2023/07/11 07:09:09;;;;;;;10.13;3.35;;;29.80;89.40;;;;;;4992794;28;20034;-69
2023/07/11 07:11:36;;;;;;;8.50;2.78;;;30.00;89.40;;;;;;4992942;28;20053;-70
2023/07/11 07:14:06;;;;;;;7.30;2.70;;;30.50;88.40;;;;;;4993035;28;20030;-69
2023/07/11 07:16:33;;;;;;;10.60;2.88;;;30.30;88.50;;;;;;4992825;28;20034;-69
2023/07/11 07:18:58;;;;;;;9.07;2.38;;;30.30;88.00;;;;;;4994128;28;20096;-70
2023/07/11 07:21:24;;;;;;;8.07;2.97;;;30.50;87.40;;;;;;4996529;28;20417;-69
2023/07/11 07:23:50;;;;;;;6.65;2.55;;;30.90;86.90;;;;;;4994777;28;20033;-70
2023/07/11 07:26:15;;;;;;;9.05;2.60;;;31.30;85.90;;;;;;4996710;28;20068;-70
2023/07/11 07:28:41;;;;;;;7.38;2.13;;;31.10;86.50;;;;;;4996373;28;20129;-69
2023/07/11 07:31:07;;;;;;;7.47;2.08;;;30.80;86.20;;;;;;4996562;28;20088;-70
2023/07/11 07:33:33;;;;;;;5.03;1.80;;;30.60;86.60;;;;;;4996000;28;20108;-69
2023/07/11 07:36:11;;;;;;;6.20;2.15;;;30.50;85.90;;;;;;4996161;28;20034;-69
2023/07/11 07:38:38;;;;;;;10.20;2.30;;;30.40;86.10;;;;;;4995340;28;20455;-70
2023/07/11 07:41:07;;;;;;;6.25;1.98;;;30.50;86.60;;;;;;4996566;28;20395;-70
2023/07/11 07:43:34;;;;;;;7.82;2.00;;;30.90;85.50;;;;;;4996758;28;20041;-69
2023/07/11 07:46:01;;;;;;;5.07;1.88;;;30.90;85.40;;;;;;4996551;28;20366;-70
2023/07/11 07:48:27;;;;;;;8.02;1.90;;;31.00;85.40;;;;;;4996291;28;20031;-70
2023/07/11 07:51:02;;;;;;;4.40;1.67;;;30.70;85.30;;;;;;4996448;28;20048;-71
2023/07/11 07:53:28;;;;;;;5.20;1.88;;;30.30;86.00;;;;;;4996773;28;20113;-69
2023/07/11 07:55:53;;;;;;;9.02;1.83;;;30.20;85.60;;;;;;4996403;28;20442;-69
2023/07/11 07:58:19;;;;;;;8.13;1.90;;;29.90;84.70;;;;;;4996278;28;20030;-69
2023/07/11 08:00:44;;;;;;;9.18;2.08;;;29.20;85.70;;;;;;4996171;28;20053;-69
2023/07/11 08:03:10;;;;;;;4.13;1.85;;;28.80;86.80;;;;;;4996135;28;20077;-69
2023/07/11 08:05:37;;;;;;;9.27;1.98;;;28.50;87.10;;;;;;4996480;28;20038;-70
2023/07/11 08:08:03;;;;;;;6.72;1.85;;;28.30;87.90;;;;;;4996141;28;20030;-70
2023/07/11 08:10:30;;;;;;;4.32;2.08;;;28.30;88.10;;;;;;4996442;28;20042;-70
2023/07/11 08:12:55;;;;;;;11.45;2.33;;;28.30;88.60;;;;;;4996278;28;20031;-70
2023/07/11 08:15:21;;;;;;;6.93;2.17;;;28.10;89.60;;;;;;4994807;28;20372;-70
2023/07/11 08:17:46;;;;;;;6.63;2.33;;;28.10;90.20;;;;;;4996079;28;20034;-70
2023/07/11 08:20:12;;;;;;;6.95;2.03;;;28.10;90.30;;;;;;4996450;28;20034;-70
2023/07/11 08:22:38;;;;;;;8.63;2.30;;;27.90;90.50;;;;;;4995868;28;20102;-69
2023/07/11 08:25:04;;;;;;;9.02;2.00;;;27.80;90.90;;;;;;4996028;28;20074;-69
2023/07/11 08:27:30;;;;;;;8.55;2.30;;;27.70;91.20;;;;;;4996069;28;20034;-69
2023/07/11 08:29:55;;;;;;;10.00;2.50;;;27.70;91.20;;;;;;4995542;28;20034;-69
2023/07/11 08:32:21;;;;;;;12.70;2.95;;;27.60;91.40;;;;;;4995495;28;20093;-68
2023/07/11 08:34:46;;;;;;;11.90;2.83;;;27.70;91.50;;;;;;4994957;28;20033;-69
2023/07/11 08:37:13;;;;;;;6.13;2.30;;;27.70;91.60;;;;;;4994370;28;20030;-69
2023/07/11 08:39:39;;;;;;;8.63;2.95;;;27.60;91.90;;;;;;4995590;28;20038;-70
2023/07/11 08:42:31;;;;;;;8.85;2.70;;;27.90;91.80;;;;;;4995842;28;20034;-70
2023/07/11 08:45:21;;;;;;;11.05;2.67;;;28.60;91.30;;;;;;4995801;28;20030;-69
2023/07/11 08:48:05;;;;;;;10.07;2.63;;;29.90;90.30;;;;;;4995558;28;20033;-69
2023/07/11 08:50:36;;;;;;;13.20;2.80;;;31.20;87.90;;;;;;4995692;28;20069;-70
2023/07/11 08:53:12;;;;;;;8.35;2.42;;;32.20;86.40;;;;;;4995279;28;20485;-69
2023/07/11 08:55:42;;;;;;;11.13;2.58;;;33.40;84.20;;;;;;4994552;28;20462;-70
2023/07/11 08:58:30;;;;;;;9.07;2.42;;;34.10;82.20;;;;;;4994485;28;20030;-69
2023/07/11 09:00:56;;;;;;;8.07;2.25;;;33.80;81.80;;;;;;4995312;28;20475;-69
2023/07/11 09:03:41;;;;;;;4.57;1.80;;;33.80;82.00;;;;;;4994989;28;20069;-69
2023/07/11 09:06:12;;;;;;;5.55;1.85;;;34.30;81.00;;;;;;4994201;28;20027;-69
2023/07/11 09:08:42;;;;;;;9.83;2.23;;;34.50;80.60;;;;;;4994842;28;20037;-69
2023/07/11 09:11:17;;;;;;;7.10;1.83;;;34.70;80.30;;;;;;4995159;28;20129;-69
2023/07/11 09:13:52;;;;;;;6.88;2.10;;;35.10;78.50;;;;;;4994279;28;20041;-69
2023/07/11 09:16:17;;;;;;;4.50;1.65;;;35.00;78.30;;;;;;4994244;28;20376;-69
2023/07/11 09:19:02;;;;;;;6.25;2.25;;;34.10;78.70;;;;;;4994887;28;20037;-69
2023/07/11 09:21:35;;;;;;;6.80;2.10;;;33.20;79.80;;;;;;4995247;28;20030;-69
2023/07/11 09:24:30;;;;;;;9.82;2.30;;;32.60;81.10;;;;;;4994510;28;20061;-69
2023/07/11 09:27:12;;;;;;;6.00;1.70;;;32.30;80.50;;;;;;4994938;28;20036;-69
2023/07/11 09:29:39;;;;;;;9.90;2.15;;;32.20;81.10;;;;;;4993058;28;20048;-68
2023/07/11 09:32:09;;;;;;;8.93;1.90;;;32.80;79.90;;;;;;4994743;28;20034;-68
2023/07/11 09:34:38;;;;;;;5.55;1.90;;;33.60;79.30;;;;;;4994096;28;20026;-69
2023/07/11 09:37:19;;;;;;;7.22;1.80;;;34.70;78.20;;;;;;4993747;28;20053;-69
2023/07/11 09:39:59;;;;;;;3.63;1.30;;;35.50;77.60;;;;;;4979723;28;20478;-69
2023/07/11 09:42:51;;;;;;;6.00;1.30;;;35.10;78.20;;;;;;4993759;28;20034;-69
2023/07/11 09:45:19;;;;;;;5.38;1.60;;;34.80;78.40;;;;;;4994340;28;20026;-69
2023/07/11 09:47:52;;;;;;;4.88;1.25;;;33.80;80.00;;;;;;4994346;28;20034;-68
2023/07/11 09:50:43;;;;;;;3.88;1.45;;;32.40;82.60;;;;;;4994588;28;20080;-69
2023/07/11 09:53:20;;;;;;;5.28;1.30;;;31.90;84.10;;;;;;4992797;28;20030;-69
2023/07/11 09:55:53;;;;;;;3.78;1.00;;;32.30;83.40;;;;;;4994030;28;20117;-68
2023/07/11 09:58:18;;;;;;;5.60;1.95;;;32.60;83.30;;;;;;4992223;28;20058;-69
2023/07/11 10:00:51;;;;;;;3.10;1.20;;;32.40;84.00;;;;;;4992138;28;20057;-69
2023/07/11 10:03:19;;;;;;;4.22;1.05;;;33.10;83.20;;;;;;4993924;28;20037;-70
2023/07/11 10:05:47;;;;;;;7.40;1.52;;;33.30;83.00;;;;;;4993803;28;20026;-69
2023/07/11 10:08:27;;;;;;;2.08;1.10;;;33.20;83.70;;;;;;4993765;28;20351;-69
2023/07/11 10:10:54;;;;;;;6.25;1.42;;;33.50;83.00;;;;;;4993928;28;20042;-70
2023/07/11 10:13:22;;;;;;;3.67;0.98;;;33.90;82.70;;;;;;4994046;28;20461;-70
2023/07/11 10:15:51;;;;;;;2.08;0.75;;;33.90;81.60;;;;;;4994211;28;20049;-69
2023/07/11 10:18:23;;;;;;;5.82;1.35;;;34.00;81.70;;;;;;4993366;28;20117;-69
2023/07/11 10:20:55;;;;;;;3.20;1.00;;;34.50;81.50;;;;;;4993510;28;20034;-70
2023/07/11 10:23:24;;;;;;;4.15;1.05;;;34.50;81.20;;;;;;4993945;28;20045;-69
2023/07/11 10:26:11;;;;;;;7.00;1.42;;;34.40;80.90;;;;;;4993822;28;20059;-70
2023/07/11 10:28:42;;;;;;;4.15;1.20;;;34.60;80.40;;;;;;4994037;28;20041;-68
2023/07/11 10:31:21;;;;;;;2.38;1.10;;;34.70;80.00;;;;;;4993911;28;20459;-69
2023/07/11 10:33:53;;;;;;;5.00;1.05;;;34.80;79.70;;;;;;4993614;28;20380;-68
2023/07/11 10:36:22;;;;;;;4.50;0.98;;;34.30;80.20;;;;;;4994061;28;20031;-69
2023/07/11 10:38:58;;;;;;;3.53;1.05;;;34.20;81.20;;;;;;4993542;28;20121;-69
2023/07/11 10:41:43;;;;;;;3.83;1.20;;;34.10;80.50;;;;;;4993558;28;20121;-68
2023/07/11 10:44:18;;;;;;;2.72;1.00;;;34.20;79.90;;;;;;4992470;28;20030;-69
2023/07/11 10:46:51;;;;;;;3.95;1.08;;;34.20;80.20;;;;;;4993571;28;20030;-69
2023/07/11 10:49:28;;;;;;;3.97;1.15;;;34.10;80.50;;;;;;4993474;28;20026;-70
2023/07/11 10:52:03;;;;;;;1.60;0.82;;;33.90;80.50;;;;;;4993356;28;20479;-69
2023/07/11 10:54:44;;;;;;;2.50;0.90;;;33.90;79.80;;;;;;4996897;28;20045;-69
2023/07/11 10:57:15;;;;;;;5.05;1.55;;;33.70;80.50;;;;;;4997506;28;20456;-68
2023/07/11 10:59:41;;;;;;;2.60;1.20;;;33.70;80.90;;;;;;4997618;28;20121;-68
2023/07/11 11:02:23;;;;;;;3.00;1.02;;;34.10;80.80;;;;;;4996958;28;20061;-68
2023/07/11 11:04:57;;;;;;;;;;;34.50;80.50;;;;;;4978578;28;20479;-70
2023/07/11 11:07:30;;;;;;;6.60;1.60;;;34.30;80.10;;;;;;4976855;28;19906;-69
2023/07/11 11:10:33;;;;;;;4.85;1.65;;;34.20;81.30;;;;;;4975953;28;20472;-69
2023/07/11 11:13:05;;;;;;;5.10;1.67;;;34.50;80.80;;;;;;4996698;28;20081;-70
2023/07/11 11:15:39;;;;;;;4.55;1.67;;;35.30;79.70;;;;;;4997030;28;20034;-68
2023/07/11 11:18:23;;;;;;;5.10;1.75;;;35.50;79.30;;;;;;4997306;28;20050;-70
2023/07/11 11:20:53;;;;;;;8.43;1.67;;;35.40;79.30;;;;;;4996711;28;20030;-69
2023/07/11 11:23:35;;;;;;;7.05;1.55;;;35.00;79.80;;;;;;4996420;28;20031;-68
2023/07/11 11:26:25;;;;;;;5.78;1.50;;;34.70;80.50;;;;;;4997355;28;20133;-69
2023/07/11 11:29:15;;;;;;;5.68;1.73;;;34.80;80.50;;;;;;4996510;28;20651;-69
2023/07/11 11:31:52;;;;;;;8.65;1.95;;;35.10;79.60;;;;;;4996560;28;20046;-70
2023/07/11 11:34:44;;;;;;;8.90;2.10;;;34.70;80.30;;;;;;4997049;28;20590;-70
2023/07/11 11:37:31;;;;;;;5.50;1.58;;;34.60;80.70;;;;;;4997130;28;20038;-70
2023/07/11 11:40:20;;;;;;;7.82;2.00;;;34.70;80.30;;;;;;4996764;28;20026;-71
2023/07/11 11:42:51;;;;;;;6.45;2.13;;;34.30;80.80;;;;;;4996833;28;20495;-70
2023/07/11 11:45:21;;;;;;;4.47;1.80;;;34.40;80.80;;;;;;4996994;28;20092;-70
2023/07/11 11:47:49;;;;;;;5.65;2.05;;;34.50;80.40;;;;;;4996590;28;20034;-69
2023/07/11 11:50:20;;;;;;;6.50;2.00;;;34.60;80.40;;;;;;4996453;28;20046;-68
2023/07/11 11:52:53;;;;;;;6.47;2.03;;;34.60;80.80;;;;;;4995685;28;20030;-68
2023/07/11 11:55:37;;;;;;;7.43;2.08;;;34.80;80.50;;;;;;4994407;28;20271;-68
2023/07/11 11:58:05;;;;;;;10.35;2.30;;;34.60;80.90;;;;;;4995032;28;20028;-69
2023/07/11 12:00:35;;;;;;;5.15;1.75;;;34.60;81.10;;;;;;4996568;28;20037;-70
2023/07/11 12:03:01;;;;;;;9.80;2.20;;;35.00;80.80;;;;;;4996294;28;20564;-70
2023/07/11 12:05:26;;;;;;;7.57;2.28;;;35.10;80.80;;;;;;4995503;28;20117;-70
2023/07/11 12:08:31;;;;;;;4.78;1.70;;;35.50;80.20;;;;;;4996467;28;20069;-70
2023/07/11 12:11:21;;;;;;;6.32;1.88;;;35.70;79.70;;;;;;4994727;28;20038;-69
2023/07/11 12:14:14;;;;;;;9.35;2.30;;;35.40;80.00;;;;;;4994029;28;20039;-70
2023/07/11 12:16:41;;;;;;;7.07;1.98;;;35.10;80.70;;;;;;4976642;28;20034;-71
2023/07/11 12:19:26;;;;;;;5.88;2.08;;;34.60;81.00;;;;;;4991642;28;20038;-70
2023/07/11 12:21:58;;;;;;;8.35;1.83;;;34.50;81.10;;;;;;4996703;28;20148;-70
2023/07/11 12:24:25;;;;;;;5.00;1.80;;;34.50;81.10;;;;;;4995783;28;20133;-70
2023/07/11 12:26:53;;;;;;;5.90;2.20;;;34.40;81.10;;;;;;4995933;28;20521;-69
2023/07/11 12:29:38;;;;;;;6.55;1.77;;;34.10;81.80;;;;;;4995492;28;20446;-70
2023/07/11 12:32:50;;;;;;;8.55;1.80;;;34.00;82.40;;;;;;4995810;28;20035;-69
2023/07/11 12:35:21;;;;;;;10.60;2.17;;;34.00;82.50;;;;;;4994411;28;20042;-69
2023/07/11 12:38:02;;;;;;;7.55;1.80;;;33.60;83.30;;;;;;4995755;28;20031;-69
2023/07/11 12:40:56;;;;;;;7.90;1.95;;;32.80;84.50;;;;;;4995803;28;20045;-68
2023/07/11 12:43:27;;;;;;;8.80;1.70;;;32.70;85.10;;;;;;4995814;28;20023;-69
2023/07/11 12:46:05;;;;;;;2.92;1.45;;;33.10;84.30;;;;;;4995702;28;20054;-69
2023/07/11 12:48:35;;;;;;;8.45;1.83;;;33.10;83.90;;;;;;4996212;28;20038;-70
2023/07/11 12:51:04;;;;;;;12.60;2.47;;;32.50;84.90;;;;;;4995294;28;20034;-70
2023/07/11 12:53:34;;;;;;;5.80;1.65;;;32.20;85.90;;;;;;4995509;28;20030;-70
2023/07/11 12:56:00;;;;;;;5.45;1.50;;;32.10;86.10;;;;;;4995612;28;20462;-69
2023/07/11 12:58:28;;;;;;;5.40;1.42;;;32.10;86.20;;;;;;4995040;28;20027;-71
2023/07/11 13:00:56;;;;;;;7.10;1.45;;;31.80;87.20;;;;;;4992984;28;20034;-69